createdAt,value
2019-05-20T00:00:40.591Z,5.80
2019-05-20T00:03:09.729Z,5.60
2019-05-20T00:05:38.881Z,5.75
2019-05-20T00:08:08.031Z,5.33
2019-05-20T00:10:36.900Z,5.33
2019-05-20T00:13:05.898Z,6.17
2019-05-20T00:15:34.905Z,5.67
2019-05-20T00:18:03.996Z,5.92
2019-05-20T00:20:33.296Z,6.05
2019-05-20T00:23:02.395Z,5.42
2019-05-20T00:25:31.601Z,5.62
2019-05-20T00:28:00.546Z,6.03
2019-05-20T00:30:29.337Z,5.92
2019-05-20T00:32:58.493Z,6.00
2019-05-20T00:35:27.364Z,6.30
2019-05-20T00:37:56.252Z,6.58
2019-05-20T00:40:25.117Z,5.47
2019-05-20T00:42:54.226Z,5.67
2019-05-20T00:45:23.338Z,6.05
2019-05-20T00:47:52.615Z,6.62
2019-05-20T00:50:21.729Z,7.30
2019-05-20T00:52:50.819Z,6.67
2019-05-20T00:55:25.737Z,6.12
2019-05-20T00:57:54.731Z,6.03
2019-05-20T01:00:24.269Z,6.10
2019-05-20T01:02:56.986Z,6.92
2019-05-20T01:05:24.402Z,6.97
2019-05-20T01:07:53.363Z,5.80
2019-05-20T01:10:22.647Z,6.08
2019-05-20T01:12:51.563Z,7.05
2019-05-20T01:15:20.764Z,5.90
2019-05-20T01:17:49.964Z,6.53
2019-05-20T01:20:19.165Z,7.15
2019-05-20T01:22:48.163Z,6.33
2019-05-20T01:25:17.140Z,6.55
2019-05-20T01:27:46.144Z,6.95
2019-05-20T01:30:15.834Z,7.47
2019-05-20T01:32:45.041Z,6.90
2019-05-20T01:35:15.164Z,5.95
2019-05-20T01:37:44.269Z,7.65
2019-05-20T01:40:13.608Z,8.20
2019-05-20T01:42:42.757Z,7.17
2019-05-20T01:45:13.088Z,8.35
2019-05-20T01:47:42.171Z,7.72
2019-05-20T01:50:11.268Z,7.53
2019-05-20T01:52:40.274Z,8.13
2019-05-20T01:55:10.074Z,5.75
2019-05-20T01:57:39.076Z,7.83
2019-05-20T02:00:08.952Z,8.00
2019-05-20T02:02:38.303Z,7.08
2019-05-20T02:05:07.803Z,7.85
2019-05-20T02:07:36.779Z,6.85
2019-05-20T02:10:07.478Z,8.18
2019-05-20T02:12:36.623Z,7.58
2019-05-20T02:15:10.991Z,7.87
2019-05-20T02:17:40.135Z,7.72
2019-05-20T02:20:09.326Z,8.58
2019-05-20T02:22:38.441Z,7.62
2019-05-20T02:25:07.432Z,7.70
2019-05-20T02:27:36.527Z,7.70
2019-05-20T02:30:08.063Z,7.95
2019-05-20T02:32:37.261Z,7.87
2019-05-20T02:35:08.046Z,6.62
2019-05-20T02:37:37.410Z,6.78
2019-05-20T02:40:08.547Z,7.50
2019-05-20T02:42:37.947Z,6.47
2019-05-20T02:45:08.540Z,7.15
2019-05-20T02:47:37.569Z,7.10
2019-05-20T02:50:06.973Z,6.97
2019-05-20T02:52:36.077Z,6.78
2019-05-20T02:55:07.033Z,7.35
2019-05-20T02:57:35.996Z,6.85
2019-05-20T03:00:07.818Z,6.28
2019-05-20T03:02:36.759Z,7.08
2019-05-20T03:05:06.880Z,6.35
2019-05-20T03:07:35.978Z,6.62
2019-05-20T03:10:06.015Z,7.47
2019-05-20T03:12:35.102Z,7.95
2019-05-20T03:15:05.757Z,7.80
2019-05-20T03:17:34.818Z,7.67
2019-05-20T03:20:04.327Z,7.00
2019-05-20T03:22:33.418Z,6.78
2019-05-20T03:25:02.498Z,7.55
2019-05-20T03:27:31.599Z,7.10
2019-05-20T03:30:01.155Z,6.60
2019-05-20T03:32:30.202Z,7.75
2019-05-20T03:35:01.139Z,7.67
2019-05-20T03:37:30.029Z,7.60
2019-05-20T03:39:59.020Z,6.62
2019-05-20T03:42:28.111Z,7.70
2019-05-20T03:44:57.314Z,8.05
2019-05-20T03:47:26.425Z,8.25
2019-05-20T03:49:55.425Z,7.87
2019-05-20T03:52:24.508Z,7.72
2019-05-20T03:54:53.563Z,7.28
2019-05-20T03:57:22.695Z,7.53
2019-05-20T03:59:51.887Z,7.65
2019-05-20T04:02:20.778Z,9.93
2019-05-20T04:05:02.497Z,11.00
2019-05-20T04:07:23.262Z,8.90
2019-05-20T04:09:52.298Z,9.40
2019-05-20T04:12:21.502Z,9.30
2019-05-20T04:14:50.760Z,6.55
2019-05-20T04:17:19.660Z,7.70
2019-05-20T04:19:48.653Z,7.58
2019-05-20T04:22:17.838Z,9.83
2019-05-20T04:24:46.939Z,10.75
2019-05-20T04:27:15.933Z,9.45
2019-05-20T04:29:44.925Z,9.85
2019-05-20T04:32:13.929Z,8.10
2019-05-20T04:34:43.026Z,7.50
2019-05-20T04:37:12.124Z,8.73
2019-05-20T04:39:41.213Z,8.30
2019-05-20T04:42:10.282Z,8.50
2019-05-20T04:44:39.395Z,7.67
2019-05-20T04:47:08.504Z,6.47
2019-05-20T04:49:37.372Z,9.90
2019-05-20T04:52:06.579Z,8.78
2019-05-20T04:54:35.467Z,10.03
2019-05-20T04:57:04.355Z,8.33
2019-05-20T04:59:33.560Z,11.05
2019-05-20T05:02:02.665Z,10.93
2019-05-20T05:04:31.649Z,9.65
2019-05-20T05:07:00.759Z,10.95
2019-05-20T05:09:29.629Z,11.15
2019-05-20T05:11:58.517Z,10.03
2019-05-20T05:14:27.508Z,8.45
2019-05-20T05:16:56.399Z,9.95
2019-05-20T05:19:25.399Z,11.30
2019-05-20T05:21:54.499Z,9.95
2019-05-20T05:24:23.589Z,9.78
2019-05-20T05:26:52.568Z,10.32
2019-05-20T05:29:21.584Z,11.20
2019-05-20T05:31:50.553Z,9.43
2019-05-20T05:34:19.455Z,10.60
2019-05-20T05:36:48.574Z,11.28
2019-05-20T05:39:17.654Z,9.15
2019-05-20T05:41:46.645Z,8.53
2019-05-20T05:44:15.624Z,10.78
2019-05-20T05:46:44.516Z,9.75
2019-05-20T05:49:13.516Z,12.50
2019-05-20T05:51:44.055Z,10.13
2019-05-20T05:54:13.149Z,10.15
2019-05-20T05:56:42.139Z,11.18
2019-05-20T05:59:11.232Z,12.35
2019-05-20T06:01:40.342Z,11.93
2019-05-20T06:04:09.429Z,11.18
2019-05-20T06:06:38.717Z,10.63
2019-05-20T06:09:08.113Z,10.95
2019-05-20T06:11:37.115Z,12.13
2019-05-20T06:14:06.223Z,10.72
2019-05-20T06:16:36.854Z,9.13
2019-05-20T06:19:05.620Z,11.40
2019-05-20T06:21:34.834Z,12.65
2019-05-20T06:24:03.935Z,11.43
2019-05-20T06:26:32.810Z,12.75
2019-05-20T06:29:03.015Z,12.50
2019-05-20T06:31:32.461Z,11.00
2019-05-20T06:34:01.748Z,10.93
2019-05-20T06:36:31.355Z,9.35
2019-05-20T06:39:12.825Z,9.80
2019-05-20T06:41:43.015Z,9.40
2019-05-20T06:44:12.162Z,9.63
2019-05-20T06:46:41.047Z,11.10
2019-05-20T06:49:10.139Z,10.18
2019-05-20T06:51:39.118Z,11.35
2019-05-20T06:54:07.997Z,11.10
2019-05-20T06:56:37.167Z,10.58
2019-05-20T06:59:06.423Z,8.90
2019-05-20T07:01:35.298Z,9.83
2019-05-20T07:04:04.510Z,11.48
2019-05-20T07:06:45.900Z,9.10
2019-05-20T07:09:05.772Z,9.73
2019-05-20T07:11:34.981Z,11.25
2019-05-20T07:14:04.191Z,9.80
2019-05-20T07:16:33.267Z,9.93
2019-05-20T07:19:02.343Z,8.43
2019-05-20T07:21:31.244Z,7.00
2019-05-20T07:24:00.347Z,7.80
2019-05-20T07:26:29.444Z,7.78
2019-05-20T07:28:58.324Z,6.70
2019-05-20T07:31:27.324Z,6.28
2019-05-20T07:33:56.414Z,6.75
2019-05-20T07:36:25.336Z,7.17
2019-05-20T07:38:54.298Z,7.10
2019-05-20T07:41:23.304Z,8.63
2019-05-20T07:43:52.289Z,8.93
2019-05-20T07:46:21.788Z,8.63
2019-05-20T07:48:51.148Z,10.13
2019-05-20T07:51:21.598Z,9.45
2019-05-20T07:53:51.559Z,10.35
2019-05-20T07:56:26.488Z,9.03
2019-05-20T07:58:58.529Z,11.38
2019-05-20T08:01:27.623Z,12.47
2019-05-20T08:03:56.627Z,10.32
2019-05-20T08:06:25.710Z,11.65
2019-05-20T08:08:54.798Z,10.18
2019-05-20T08:11:23.804Z,11.73
2019-05-20T08:13:52.913Z,10.03
2019-05-20T08:16:21.999Z,10.85
2019-05-20T08:18:51.117Z,10.80
2019-05-20T08:21:21.215Z,9.93
2019-05-20T08:23:50.426Z,10.53
2019-05-20T08:26:19.497Z,9.48
2019-05-20T08:28:48.710Z,10.48
2019-05-20T08:31:17.699Z,11.57
2019-05-20T08:33:46.690Z,10.03
2019-05-20T08:36:15.890Z,10.98
2019-05-20T08:38:44.993Z,11.55
2019-05-20T08:41:13.978Z,9.20
2019-05-20T08:43:43.079Z,9.53
2019-05-20T08:46:12.183Z,9.68
2019-05-20T08:48:41.051Z,8.83
2019-05-20T08:51:10.048Z,9.63
2019-05-20T08:53:39.165Z,11.08
2019-05-20T08:56:08.138Z,9.48
2019-05-20T08:58:37.336Z,10.98
2019-05-20T09:01:07.139Z,10.85
2019-05-20T09:03:37.182Z,8.75
2019-05-20T09:06:07.286Z,9.03
2019-05-20T09:08:36.169Z,8.45
2019-05-20T09:11:05.280Z,8.68
2019-05-20T09:13:34.379Z,8.80
2019-05-20T09:16:04.637Z,9.25
2019-05-20T09:18:33.785Z,9.55
2019-05-20T09:21:02.786Z,9.08
2019-05-20T09:23:31.664Z,9.75
2019-05-20T09:26:00.537Z,7.05
2019-05-20T09:28:30.489Z,10.72
2019-05-20T09:31:01.010Z,10.28
2019-05-20T09:33:30.310Z,9.03
2019-05-20T09:35:59.610Z,8.33
2019-05-20T09:38:28.499Z,8.53
2019-05-20T09:40:57.587Z,9.33
2019-05-20T09:43:26.879Z,9.33
2019-05-20T09:46:06.162Z,7.08
2019-05-20T09:48:26.416Z,9.48
2019-05-20T09:50:55.531Z,10.20
2019-05-20T09:53:24.815Z,10.18
2019-05-20T09:55:53.781Z,9.98
2019-05-20T09:58:23.104Z,11.65
2019-05-20T10:00:52.089Z,10.03
2019-05-20T10:03:21.084Z,9.15
2019-05-20T10:05:49.981Z,11.93
2019-05-20T10:08:34.554Z,9.35
2019-05-20T10:10:49.620Z,10.30
2019-05-20T10:13:18.699Z,9.03
2019-05-20T10:15:47.807Z,8.58
2019-05-20T10:18:34.186Z,10.15
2019-05-20T10:20:47.729Z,10.63
2019-05-20T10:23:16.607Z,10.53
2019-05-20T10:25:45.699Z,10.00
2019-05-20T10:28:14.698Z,12.45
2019-05-20T10:30:43.705Z,12.30
2019-05-20T10:33:12.694Z,11.08
2019-05-20T10:35:41.894Z,11.22
2019-05-20T10:38:10.879Z,12.13
2019-05-20T10:40:40.092Z,12.35
2019-05-20T10:43:09.177Z,13.20
2019-05-20T10:45:38.279Z,11.78
2019-05-20T10:48:08.895Z,11.20
2019-05-20T10:50:38.197Z,11.63
2019-05-20T10:53:07.503Z,11.38
2019-05-20T10:55:36.698Z,10.08
2019-05-20T10:58:06.105Z,11.73
2019-05-20T11:00:35.204Z,13.05
2019-05-20T11:03:04.296Z,11.33
2019-05-20T11:05:33.598Z,12.58
2019-05-20T11:08:05.342Z,10.75
2019-05-20T11:10:34.281Z,9.05
2019-05-20T11:13:03.605Z,9.98
2019-05-20T11:15:32.741Z,8.23
2019-05-20T11:18:01.736Z,9.33
2019-05-20T11:20:30.830Z,11.85
2019-05-20T11:23:01.245Z,11.40
2019-05-20T11:25:30.458Z,11.10
2019-05-20T11:27:59.546Z,10.78
2019-05-20T11:30:28.639Z,10.90
2019-05-20T11:32:57.621Z,11.20
2019-05-20T11:35:26.736Z,11.18
2019-05-20T11:37:55.714Z,10.32
2019-05-20T11:40:24.832Z,10.08
2019-05-20T11:42:53.970Z,8.83
2019-05-20T11:45:23.118Z,12.25
2019-05-20T11:47:52.093Z,12.93
2019-05-20T11:50:21.294Z,11.73
2019-05-20T11:52:50.289Z,8.88
2019-05-20T11:55:19.388Z,9.80
2019-05-20T11:57:48.486Z,12.25
2019-05-20T12:00:18.081Z,11.88
2019-05-20T12:02:47.190Z,10.48
2019-05-20T12:05:16.496Z,12.18
2019-05-20T12:07:45.621Z,11.22
2019-05-20T12:10:14.796Z,10.25
2019-05-20T12:12:46.031Z,12.13
2019-05-20T12:15:14.937Z,10.72
2019-05-20T12:17:44.621Z,9.68
2019-05-20T12:20:14.401Z,9.58
2019-05-20T12:22:43.444Z,10.82
2019-05-20T12:25:12.593Z,10.55
2019-05-20T12:27:41.510Z,12.98
2019-05-20T12:30:10.793Z,9.65
2019-05-20T12:32:39.700Z,9.55
2019-05-20T12:35:09.179Z,10.03
2019-05-20T12:37:38.147Z,9.63
2019-05-20T12:40:08.800Z,9.20
2019-05-20T12:42:38.252Z,9.73
2019-05-20T12:45:08.297Z,7.85
2019-05-20T12:47:38.177Z,8.20
2019-05-20T12:50:08.425Z,11.48
2019-05-20T12:52:37.287Z,11.08
2019-05-20T12:55:09.605Z,11.78
2019-05-20T12:57:38.451Z,7.87
2019-05-20T13:00:12.459Z,8.73
2019-05-20T13:02:42.834Z,10.48
2019-05-20T13:05:12.069Z,9.98
2019-05-20T13:07:41.020Z,10.93
2019-05-20T13:10:27.973Z,8.98
2019-05-20T13:12:41.515Z,11.93
2019-05-20T13:15:11.348Z,7.10
2019-05-20T13:17:44.363Z,9.75
2019-05-20T13:20:11.275Z,7.97
2019-05-20T13:22:40.152Z,9.00
2019-05-20T13:25:10.313Z,9.30
2019-05-20T13:27:39.261Z,7.53
2019-05-20T13:30:08.805Z,7.75
2019-05-20T13:32:37.753Z,7.78
2019-05-20T13:35:08.178Z,7.62
2019-05-20T13:37:37.476Z,11.60
2019-05-20T13:40:07.874Z,9.93
2019-05-20T13:42:37.025Z,9.28
2019-05-20T13:45:08.064Z,10.35
2019-05-20T13:47:37.364Z,9.88
2019-05-20T13:50:10.490Z,9.88
2019-05-20T13:52:39.428Z,10.05
2019-05-20T13:55:09.680Z,10.55
2019-05-20T13:57:39.126Z,9.80
2019-05-20T14:00:09.002Z,10.03
2019-05-20T14:02:38.100Z,11.10
2019-05-20T14:05:07.234Z,9.30
2019-05-20T14:07:36.344Z,11.93
2019-05-20T14:10:07.883Z,12.37
2019-05-20T14:12:36.885Z,11.83
2019-05-20T14:15:07.058Z,12.88
2019-05-20T14:17:36.105Z,13.93
2019-05-20T14:20:06.396Z,12.85
2019-05-20T14:22:35.422Z,13.30
2019-05-20T14:25:06.734Z,12.53
2019-05-20T14:27:35.769Z,12.28
2019-05-20T14:30:08.094Z,12.35
2019-05-20T14:32:37.224Z,13.50
2019-05-20T14:35:08.503Z,11.85
2019-05-20T14:37:37.656Z,14.15
2019-05-20T14:40:07.704Z,12.95
2019-05-20T14:42:36.702Z,15.58
2019-05-20T14:45:07.569Z,12.93
2019-05-20T14:47:36.725Z,12.65
2019-05-20T14:50:09.549Z,11.03
2019-05-20T14:52:38.684Z,15.03
2019-05-20T14:55:08.331Z,10.82
2019-05-20T14:57:37.406Z,13.48
2019-05-20T15:00:08.656Z,14.58
2019-05-20T15:02:37.744Z,11.35
2019-05-20T15:05:08.385Z,11.93
2019-05-20T15:07:37.465Z,11.35
2019-05-20T15:10:10.265Z,12.65
2019-05-20T15:12:40.366Z,9.25
2019-05-20T15:15:09.851Z,15.78
2019-05-20T15:17:38.969Z,16.35
2019-05-20T15:20:08.908Z,10.80
2019-05-20T15:22:37.970Z,11.65
2019-05-20T15:25:08.067Z,10.80
2019-05-20T15:27:37.125Z,11.18
2019-05-20T15:30:09.308Z,12.25
2019-05-20T15:32:38.470Z,9.95
2019-05-20T15:35:08.146Z,9.70
2019-05-20T15:37:37.365Z,12.93
2019-05-20T15:40:06.643Z,12.37
2019-05-20T15:42:35.893Z,13.38
2019-05-20T15:45:10.202Z,11.95
2019-05-20T15:47:39.425Z,12.98
2019-05-20T15:50:10.959Z,12.23
2019-05-20T15:52:40.029Z,9.13
2019-05-20T15:55:11.052Z,10.40
2019-05-20T15:57:40.168Z,10.48
2019-05-20T16:00:11.222Z,9.30
2019-05-20T16:02:40.413Z,12.33
2019-05-20T16:05:10.016Z,14.98
2019-05-20T16:07:39.132Z,13.60
2019-05-20T16:10:08.602Z,11.95
2019-05-20T16:12:37.482Z,7.70
2019-05-20T16:15:10.236Z,15.30
2019-05-20T16:17:39.425Z,13.28
2019-05-20T16:20:08.887Z,11.30
2019-05-20T16:22:37.994Z,10.40
2019-05-20T16:25:08.696Z,9.95
2019-05-20T16:27:37.714Z,11.60
2019-05-20T16:30:10.097Z,13.15
2019-05-20T16:32:39.394Z,13.20
2019-05-20T16:35:08.593Z,11.93
2019-05-20T16:37:37.605Z,10.48
2019-05-20T16:40:08.742Z,11.75
2019-05-20T16:42:37.814Z,15.23
2019-05-20T16:45:11.633Z,12.55
2019-05-20T16:47:39.600Z,12.28
2019-05-20T16:50:10.634Z,11.38
2019-05-20T16:52:39.714Z,12.13
2019-05-20T16:55:09.676Z,11.20
2019-05-20T16:57:38.761Z,9.88
2019-05-20T17:00:27.873Z,10.13
2019-05-20T17:02:39.324Z,10.10
2019-05-20T17:05:08.609Z,8.13
2019-05-20T17:07:37.537Z,9.40
2019-05-20T17:10:09.915Z,9.13
2019-05-20T17:12:38.922Z,7.72
2019-05-20T17:15:08.336Z,7.92
2019-05-20T17:17:37.287Z,9.08
2019-05-20T17:20:06.697Z,8.03
2019-05-20T17:22:35.711Z,9.10
2019-05-20T17:25:08.913Z,7.30
2019-05-20T17:27:38.032Z,8.73
2019-05-20T17:30:08.890Z,8.68
2019-05-20T17:32:38.094Z,8.78
2019-05-20T17:35:07.582Z,9.43
2019-05-20T17:37:36.539Z,9.33
2019-05-20T17:40:08.390Z,8.05
2019-05-20T17:42:37.394Z,8.93
2019-05-20T17:45:08.041Z,9.40
2019-05-20T17:47:37.094Z,8.40
2019-05-20T17:50:08.244Z,8.85
2019-05-20T17:52:37.374Z,8.25
2019-05-20T17:55:07.690Z,8.95
2019-05-20T17:57:36.869Z,7.92
2019-05-20T18:00:11.227Z,8.18
2019-05-20T18:02:40.386Z,8.53
2019-05-20T18:05:09.750Z,9.08
2019-05-20T18:07:38.905Z,9.23
2019-05-20T18:10:08.936Z,12.07
2019-05-20T18:12:38.013Z,8.80
2019-05-20T18:15:07.339Z,7.92
2019-05-20T18:17:36.397Z,9.58
2019-05-20T18:20:08.839Z,9.93
2019-05-20T18:22:38.384Z,9.58
2019-05-20T18:25:08.172Z,8.45
2019-05-20T18:27:37.198Z,8.85
2019-05-20T18:30:08.436Z,8.83
2019-05-20T18:32:38.593Z,9.68
2019-05-20T18:35:07.994Z,8.48
2019-05-20T18:37:37.052Z,7.35
2019-05-20T18:40:14.095Z,7.80
2019-05-20T18:42:38.210Z,9.03
2019-05-20T18:45:07.823Z,7.60
2019-05-20T18:47:36.806Z,7.55
2019-05-20T18:50:07.363Z,6.92
2019-05-20T18:52:37.994Z,7.25
2019-05-20T18:55:07.618Z,6.62
2019-05-20T18:57:36.692Z,7.72
2019-05-20T19:00:09.062Z,7.30
2019-05-20T19:02:38.238Z,8.33
2019-05-20T19:05:07.976Z,6.65
2019-05-20T19:07:37.392Z,8.38
2019-05-20T19:10:07.259Z,5.95
2019-05-20T19:12:36.574Z,6.97
2019-05-20T19:15:07.141Z,6.15
2019-05-20T19:17:40.717Z,6.60
2019-05-20T19:20:09.801Z,6.70
2019-05-20T19:22:38.886Z,7.95
2019-05-20T19:25:08.093Z,7.03
2019-05-20T19:27:37.383Z,8.03
2019-05-20T19:30:07.263Z,9.43
2019-05-20T19:32:36.747Z,7.30
2019-05-20T19:35:09.431Z,6.53
2019-05-20T19:37:38.682Z,7.12
2019-05-20T19:40:08.634Z,7.60
2019-05-20T19:42:39.373Z,9.18
2019-05-20T19:45:08.538Z,7.72
2019-05-20T19:47:37.770Z,7.22
2019-05-20T19:50:11.675Z,7.05
2019-05-20T19:52:40.956Z,7.85
2019-05-20T19:55:10.378Z,6.85
2019-05-20T19:57:39.457Z,8.98
2019-05-20T20:00:09.818Z,8.78
2019-05-20T20:02:38.875Z,8.93
2019-05-20T20:05:08.401Z,10.13
2019-05-20T20:07:37.590Z,8.55
2019-05-20T20:10:06.872Z,9.03
2019-05-20T20:12:35.975Z,8.40
2019-05-20T20:15:07.470Z,7.90
2019-05-20T20:17:36.706Z,8.73
2019-05-20T20:20:07.025Z,8.48
2019-05-20T20:22:36.283Z,9.33
2019-05-20T20:25:06.741Z,9.78
2019-05-20T20:27:35.752Z,8.80
2019-05-20T20:30:07.135Z,6.17
2019-05-20T20:32:44.586Z,10.60
2019-05-20T20:35:13.960Z,8.05
2019-05-20T20:37:44.448Z,8.75
2019-05-20T20:40:13.957Z,5.67
2019-05-20T20:42:43.161Z,8.25
2019-05-20T20:45:12.757Z,7.12
2019-05-20T20:47:42.481Z,7.37
2019-05-20T20:50:12.587Z,7.62
2019-05-20T20:52:41.754Z,9.85
2019-05-20T20:55:11.728Z,7.80
2019-05-20T20:57:40.872Z,8.40
2019-05-20T21:00:10.619Z,6.58
2019-05-20T21:02:52.304Z,5.45
2019-05-20T21:05:10.803Z,7.42
2019-05-20T21:07:40.533Z,7.05
2019-05-20T21:10:09.587Z,6.45
2019-05-20T21:12:38.547Z,6.17
2019-05-20T21:15:07.724Z,8.53
2019-05-20T21:17:36.702Z,7.22
2019-05-20T21:20:07.031Z,7.40
2019-05-20T21:22:36.228Z,6.47
2019-05-20T21:25:06.784Z,8.10
2019-05-20T21:27:35.856Z,6.70
2019-05-20T21:30:06.809Z,7.12
2019-05-20T21:32:35.754Z,9.80
2019-05-20T21:35:05.368Z,8.60
2019-05-20T21:37:34.380Z,10.32
2019-05-20T21:40:03.465Z,9.95
2019-05-20T21:42:32.677Z,9.75
2019-05-20T21:45:01.690Z,8.33
2019-05-20T21:47:30.660Z,7.67
2019-05-20T21:49:59.774Z,7.58
2019-05-20T21:52:28.959Z,8.70
2019-05-20T21:54:57.840Z,10.28
2019-05-20T21:57:26.932Z,7.83
2019-05-20T21:59:56.058Z,8.28
2019-05-20T22:02:26.669Z,8.95
2019-05-20T22:04:55.969Z,8.65
2019-05-20T22:07:25.089Z,8.90
2019-05-20T22:09:54.056Z,9.58
2019-05-20T22:12:23.049Z,8.65
2019-05-20T22:14:52.034Z,8.25
2019-05-20T22:17:21.038Z,7.90
2019-05-20T22:19:50.139Z,8.43
2019-05-20T22:22:20.778Z,7.58
2019-05-20T22:24:49.989Z,9.20
2019-05-20T22:27:20.112Z,6.92
2019-05-20T22:29:49.127Z,8.40
2019-05-20T22:32:18.058Z,7.25
2019-05-20T22:34:53.620Z,5.60
2019-05-20T22:37:18.618Z,6.47
2019-05-20T22:39:47.709Z,6.22
2019-05-20T22:42:16.818Z,6.55
2019-05-20T22:44:45.697Z,6.78
2019-05-20T22:47:14.799Z,5.60
2019-05-20T22:49:43.780Z,6.05
2019-05-20T22:52:12.980Z,6.08
2019-05-20T22:54:41.987Z,5.60
2019-05-20T22:57:11.080Z,7.15
2019-05-20T22:59:39.949Z,6.62
2019-05-20T23:02:08.958Z,8.40
2019-05-20T23:04:38.063Z,5.97
2019-05-20T23:07:07.160Z,7.20
2019-05-20T23:09:36.272Z,5.50
2019-05-20T23:12:05.560Z,6.55
2019-05-20T23:14:34.557Z,5.67
2019-05-20T23:17:03.813Z,6.25
2019-05-20T23:19:32.883Z,6.00
2019-05-20T23:22:02.199Z,7.12
2019-05-20T23:24:31.106Z,6.42
2019-05-20T23:27:00.217Z,6.78
2019-05-20T23:29:29.217Z,6.12
2019-05-20T23:31:58.217Z,6.45
2019-05-20T23:34:27.305Z,6.17
2019-05-20T23:36:56.502Z,5.10
2019-05-20T23:39:25.628Z,5.85
2019-05-20T23:41:54.867Z,6.40
2019-05-20T23:44:24.015Z,7.62
2019-05-20T23:46:53.098Z,4.42
2019-05-20T23:49:22.617Z,7.47
2019-05-20T23:51:51.688Z,6.53
2019-05-20T23:54:20.907Z,6.72
2019-05-20T23:56:50.135Z,9.10
2019-05-20T23:59:19.178Z,7.78
